Informes de METAR cercanos

 

LEXJ - Santander/Parayas, Spain
Distance from station: ESE 6km
Actualización: 13/04/2021 20:30
Despejado
Despejado
 Viento del E
Viento: E 13 km/h
Temperatura: 13°C
Rocío: 5°C
Humedad: 59%
Barómetro: 1021 hPa
Resumen: Despejado
Visibility: greater than 10 km
2021/04/13 18:30 LEXJ 131830Z 09007KT 050V120 CAVOK 13/05 Q1021
LEBB - Bilbao/Sondica, Spain
Distance from station: ESE 80km
Actualización: 13/04/2021 20:30
Despejado
Despejado
 Viento del E
Viento: E 11 km/h
Temperatura: 13°C
Rocío: 3°C
Humedad: 51%
Barómetro: 1022 hPa
Resumen: Despejado
Visibility: greater than 10 km
2021/04/13 18:30 LEBB 131830Z 10006KT 070V140 CAVOK 13/03 Q1022 NOSIG
 
LEBL - Barcelona Airpor, Spain
Distance from station: ESE 726km
Actualización: 13/04/2021 20:30
Parcialmente nuboso
Parcialmente nuboso
 Viento del S
Viento: S 13 km/h
Temperatura: 14°C
Rocío: 10°C
Humedad: 77%
Barómetro: 1022 hPa
Clouds: Parcialmente nuboso
Visibility: 10 km
Cloud details: Parcialmente nuboso 640 m
2021/04/13 18:30 LEBL 131830Z 19007KT 9999 SCT021 14/10 Q1022 NOSIG
LEMD - Madrid/Barajas, Spain
Distance from station: S 325km
Actualización: 13/04/2021 20:30
Cubierto
Cubierto
 Viento del N
Viento: N 9 km/h
Temperatura: 13°C
Rocío: 9°C
Humedad: 77%
Barómetro: 1020 hPa
Clouds: Cubierto
Visibility: 10 km
Cloud details: Parcialmente nuboso 1524 m
Muy nuboso 1829 m
Cubierto 2438 m
2021/04/13 18:30 LEMD 131830Z 36005KT 9999 SCT050 BKN060 OVC080 13/09 Q1020 NOSIG
 
LPPT - Lisbon/Portela, Portugal
Distance from station: SO 663km
Actualización: 13/04/2021 20:30
Muy nuboso
Muy nuboso
 Viento del OSO
Viento: OSO 13 km/h
Temperatura: 17°C
Rocío: 14°C
Humedad: 83%
Barómetro: 1018 hPa
Clouds: Muy nuboso
Visibility: 10 km
Cloud details: Few Clouds 427 m
Parcialmente nuboso 549 m
Muy nuboso 762 m
2021/04/13 18:30 LPPT 131830Z 25007KT 9999 FEW014 SCT018 BKN025 17/14 Q1018
LECO - La Coruna/Alvedr, Spain
Distance from station: O 349km
Actualización: 13/04/2021 20:30
Parcialmente nuboso
Parcialmente nuboso
 Viento del NO
Viento: NO 6 km/h
Temperatura: 17°C
Rocío: 11°C
Humedad: 68%
Barómetro: 1018 hPa
Clouds: Parcialmente nuboso
Visibility: 10 km
Cloud details: Parcialmente nuboso 1372 m
2021/04/13 18:30 LECO 131830Z 32003KT 270V020 9999 SCT045 17/11 Q1018 NOSIG
 
LEST - Santiago/Labacol, Spain
Distance from station: O 358km
Actualización: 13/04/2021 20:30
Parcialmente nuboso
Parcialmente nuboso
 Viento del SE
Viento: SE 9 km/h
Temperatura: 13°C
Rocío: 10°C
Humedad: 82%
Barómetro: 1019 hPa
Clouds: Parcialmente nuboso
Visibility: 10 km
Cloud details: Parcialmente nuboso 914 m
2021/04/13 18:30 LEST 131830Z 14005KT 110V170 9999 SCT030 13/10 Q1019 NOSIG
EBBR - Brussels International Airport, Belgium
Distance from station: O 1339km
Actualización: 13/04/2021 20:50
Despejado
Despejado
 Viento del NE
Viento: NE 9 km/h
Temperatura: 6°C
Wind Chill: 4°C
Rocío: 0°C
Humedad: 66%
Barómetro: 1032 hPa
Resumen: Despejado
Visibility: greater than 10 km
2021/04/13 18:50 EBBR 131850Z 04005KT CAVOK 06/00 Q1032 NOSIG